Time;durP1;ratioP1;P1;durP2;ratioP2;P2;SDS_P1;SDS_P2;PMS_P1;PMS_P2;Temp;Humidity;BMP_temperature;BMP_pressure;BME280_temperature;BME280_humidity;BME280_pressure;Samples;Min_cycle;Max_cycle;Signal;HPM_P1;HPM_P2
2023/12/23 00:02:01;;;;;;;0.47;0.20;;;;;;;;;;10482701;28;20442;-80
2023/12/23 00:07:05;;;;;;;0.90;0.30;;;;;;;;;;10451084;28;20548;-80
2023/12/23 00:12:12;;;;;;;0.00;0.00;;;;;;;;;;10469359;28;20036;-80
2023/12/23 00:17:24;;;;;;;0.17;0.17;;;;;;;;;;10478911;28;20398;-80
2023/12/23 00:22:34;;;;;;;0.63;0.30;;;;;;;;;;10481659;28;20053;-79
2023/12/23 00:27:44;;;;;;;0.20;0.20;;;;;;;;;;10490006;28;20056;-79
2023/12/23 00:32:50;;;;;;;0.40;0.20;;;;;;;;;;10491820;28;20060;-79
2023/12/23 00:37:54;;;;;;;0.10;0.10;;;;;;;;;;10468364;28;20486;-79
2023/12/23 00:42:58;;;;;;;0.63;0.30;;;;;;;;;;10479828;28;20062;-79
2023/12/23 00:48:06;;;;;;;0.30;0.17;;;;;;;;;;10493928;28;20068;-80
2023/12/23 00:53:11;;;;;;;0.38;0.20;;;;;;;;;;10456046;28;20068;-79
2023/12/23 00:58:17;;;;;;;0.20;0.13;;;;;;;;;;10495369;28;20041;-79
2023/12/23 01:03:27;;;;;;;0.43;0.20;;;;;;;;;;10457934;28;20044;-80
2023/12/23 01:08:35;;;;;;;1.98;0.25;;;;;;;;;;10457009;28;20044;-79
2023/12/23 01:13:46;;;;;;;0.40;0.30;;;;;;;;;;10475137;28;20048;-78
2023/12/23 01:18:59;;;;;;;0.28;0.25;;;;;;;;;;10459777;28;20036;-80
2023/12/23 01:24:17;;;;;;;0.35;0.00;;;;;;;;;;10470020;28;20044;-79
2023/12/23 01:29:25;;;;;;;0.13;0.13;;;;;;;;;;10465027;28;20059;-79
2023/12/23 01:34:34;;;;;;;0.90;0.20;;;;;;;;;;10471178;28;21590;-78
2023/12/23 01:39:38;;;;;;;0.20;0.20;;;;;;;;;;10465964;28;20500;-78
2023/12/23 01:44:44;;;;;;;1.25;0.20;;;;;;;;;;10461393;28;20044;-78
2023/12/23 01:49:53;;;;;;;0.70;0.20;;;;;;;;;;10454575;28;20072;-78
2023/12/23 01:54:58;;;;;;;0.10;0.10;;;;;;;;;;10457378;28;20174;-77
2023/12/23 02:00:04;;;;;;;0.68;0.30;;;;;;;;;;10466549;28;20185;-77
2023/12/23 02:05:13;;;;;;;0.20;0.20;;;;;;;;;;10461947;28;20045;-78
2023/12/23 02:10:18;;;;;;;1.55;0.30;;;;;;;;;;10483967;28;20049;-78
2023/12/23 02:15:23;;;;;;;1.58;0.40;;;;;;;;;;10479152;28;20053;-78
2023/12/23 02:20:29;;;;;;;0.10;0.00;;;;;;;;;;10469206;28;20082;-77
2023/12/23 02:25:41;;;;;;;0.20;0.20;;;;;;;;;;10476746;28;20124;-77
2023/12/23 02:30:46;;;;;;;0.70;0.13;;;;;;;;;;10479094;28;20071;-76
2023/12/23 02:35:52;;;;;;;0.17;0.08;;;;;;;;;;10488645;28;20422;-76
2023/12/23 02:41:02;;;;;;;0.47;0.10;;;;;;;;;;10485355;28;20643;-77
2023/12/23 02:46:07;;;;;;;0.10;0.05;;;;;;;;;;10464786;28;20036;-77
2023/12/23 02:51:13;;;;;;;0.00;0.00;;;;;;;;;;10472566;28;20045;-78
2023/12/23 02:56:15;;;;;;;;;;;;;;;;;;10480225;28;21287;-78
2023/12/23 03:06:49;;;;;;;0.20;0.10;;;;;;;;;;10592303;27;20476;-77
2023/12/23 03:11:51;;;;;;;;;;;;;;;;;;10594641;27;20067;-78
2023/12/23 03:16:53;;;;;;;0.20;0.10;;;;;;;;;;10591249;27;19920;-77
2023/12/23 03:21:57;;;;;;;0.00;0.00;;;;;;;;;;10595793;27;20044;-76
2023/12/23 03:27:00;;;;;;;0.40;0.30;;;;;;;;;;10597925;27;20104;-77
2023/12/23 03:32:03;;;;;;;0.45;0.10;;;;;;;;;;10597465;27;20051;-77
2023/12/23 03:37:07;;;;;;;0.10;0.10;;;;;;;;;;10599809;27;20043;-77
2023/12/23 03:42:09;;;;;;;0.00;0.00;;;;;;;;;;10596535;27;20048;-77
2023/12/23 03:47:12;;;;;;;0.40;0.10;;;;;;;;;;10603997;27;20164;-77
2023/12/23 03:52:16;;;;;;;0.10;0.08;;;;;;;;;;10590124;27;20142;-76
2023/12/23 03:57:19;;;;;;;0.10;0.10;;;;;;;;;;10589367;28;20059;-77
2023/12/23 04:02:21;;;;;;;0.00;0.00;;;;;;;;;;10593470;27;20053;-76
2023/12/23 04:07:25;;;;;;;1.50;0.00;;;;;;;;;;10588414;27;20156;-77
2023/12/23 04:12:28;;;;;;;0.00;0.00;;;;;;;;;;10595860;27;20054;-76
2023/12/23 04:17:31;;;;;;;0.20;0.10;;;;;;;;;;10570283;27;20458;-77
2023/12/23 04:22:35;;;;;;;0.08;0.08;;;;;;;;;;10560823;27;20043;-77
2023/12/23 04:27:37;;;;;;;;;;;;;;;;;;10563825;28;20513;-77
2023/12/23 04:32:40;;;;;;;0.30;0.20;;;;;;;;;;10569652;27;20030;-77
2023/12/23 04:37:44;;;;;;;0.25;0.10;;;;;;;;;;10558953;28;20040;-76
2023/12/23 04:42:47;;;;;;;0.15;0.10;;;;;;;;;;10565531;28;20480;-77
2023/12/23 04:47:50;;;;;;;0.32;0.10;;;;;;;;;;10570582;28;20242;-77
2023/12/23 04:52:54;;;;;;;0.10;0.00;;;;;;;;;;10559821;27;20039;-77
2023/12/23 04:57:57;;;;;;;0.00;0.00;;;;;;;;;;10565181;28;20044;-77
2023/12/23 05:02:59;;;;;;;0.20;0.10;;;;;;;;;;10566585;28;20401;-76
2023/12/23 05:08:04;;;;;;;0.10;0.10;;;;;;;;;;10563806;28;20074;-76
2023/12/23 05:13:07;;;;;;;0.25;0.10;;;;;;;;;;10555620;28;20136;-76
2023/12/23 05:18:10;;;;;;;0.00;0.00;;;;;;;;;;10565871;28;20443;-77
2023/12/23 05:23:14;;;;;;;0.22;0.08;;;;;;;;;;10565852;28;20126;-77
2023/12/23 05:28:16;;;;;;;0.00;0.00;;;;;;;;;;10557114;28;20067;-75
2023/12/23 05:33:19;;;;;;;0.00;0.00;;;;;;;;;;10558866;28;20047;-77
2023/12/23 05:38:24;;;;;;;0.30;0.20;;;;;;;;;;10564019;28;20354;-78
2023/12/23 05:43:26;;;;;;;0.00;0.00;;;;;;;;;;10566159;28;20301;-77
2023/12/23 05:48:29;;;;;;;0.10;0.10;;;;;;;;;;10563409;27;20040;-79
2023/12/23 05:53:33;;;;;;;0.10;0.10;;;;;;;;;;10559650;28;20467;-78
2023/12/23 05:58:36;;;;;;;;;;;;;;;;;;10564012;27;20124;-77
2023/12/23 06:03:38;;;;;;;0.00;0.00;;;;;;;;;;10558565;28;19920;-77
2023/12/23 06:08:42;;;;;;;0.10;0.10;;;;;;;;;;10560982;28;20499;-78
2023/12/23 06:13:45;;;;;;;0.00;0.00;;;;;;;;;;10558776;28;20124;-77
2023/12/23 06:18:47;;;;;;;0.10;0.10;;;;;;;;;;10552552;28;20093;-78
2023/12/23 06:23:51;;;;;;;0.13;0.10;;;;;;;;;;10564101;28;20473;-77
2023/12/23 06:28:54;;;;;;;0.35;0.10;;;;;;;;;;10558628;28;20627;-77
2023/12/23 06:33:57;;;;;;;0.40;0.20;;;;;;;;;;10561120;28;20040;-77
2023/12/23 06:39:01;;;;;;;0.13;0.05;;;;;;;;;;10565185;28;20054;-77
2023/12/23 06:44:03;;;;;;;0.22;0.10;;;;;;;;;;10554612;27;20051;-76
2023/12/23 06:49:06;;;;;;;0.30;0.20;;;;;;;;;;10558779;28;20505;-77
2023/12/23 06:54:10;;;;;;;0.30;0.20;;;;;;;;;;10555044;28;20047;-77
2023/12/23 06:59:13;;;;;;;0.30;0.20;;;;;;;;;;10563690;28;20088;-77
2023/12/23 07:04:16;;;;;;;0.52;0.30;;;;;;;;;;10557699;28;20124;-77
2023/12/23 07:09:20;;;;;;;0.40;0.30;;;;;;;;;;10557067;28;20043;-77
2023/12/23 07:14:23;;;;;;;0.30;0.30;;;;;;;;;;10549077;28;20624;-77
2023/12/23 07:19:26;;;;;;;1.63;0.25;;;;;;;;;;10564713;28;20036;-78
2023/12/23 07:24:30;;;;;;;0.63;0.20;;;;;;;;;;10564478;28;20036;-77
2023/12/23 07:29:33;;;;;;;1.23;0.22;;;;;;;;;;10564628;28;20044;-77
2023/12/23 07:34:35;;;;;;;1.20;0.22;;;;;;;;;;10560072;28;20032;-76
2023/12/23 07:39:39;;;;;;;0.20;0.20;;;;;;;;;;10563883;28;20051;-76
2023/12/23 07:44:42;;;;;;;0.43;0.20;;;;;;;;;;10560069;28;20048;-75
2023/12/23 07:49:44;;;;;;;1.73;0.40;;;;;;;;;;10567282;28;20047;-76
2023/12/23 07:54:49;;;;;;;0.40;0.10;;;;;;;;;;10569369;28;20358;-77
2023/12/23 07:59:51;;;;;;;;;;;;;;;;;;10568318;28;20071;-77
2023/12/23 08:04:54;;;;;;;0.25;0.10;;;;;;;;;;10569175;27;19924;-76
2023/12/23 08:09:58;;;;;;;1.85;0.22;;;;;;;;;;10569174;28;20139;-74
2023/12/23 08:15:00;;;;;;;0.40;0.30;;;;;;;;;;10572170;28;20040;-76
2023/12/23 08:20:03;;;;;;;0.10;0.10;;;;;;;;;;10567562;28;20035;-76
2023/12/23 08:25:08;;;;;;;0.20;0.20;;;;;;;;;;10564336;28;20253;-76
2023/12/23 08:30:11;;;;;;;0.57;0.28;;;;;;;;;;10568806;28;20039;-76
2023/12/23 08:35:15;;;;;;;0.30;0.20;;;;;;;;;;10569651;27;20028;-76
2023/12/23 08:40:19;;;;;;;0.55;0.20;;;;;;;;;;10565867;28;20483;-76
2023/12/23 08:45:22;;;;;;;0.10;0.10;;;;;;;;;;10560637;28;20071;-76
2023/12/23 08:50:25;;;;;;;0.20;0.10;;;;;;;;;;10556702;28;20035;-77
2023/12/23 08:55:29;;;;;;;0.10;0.10;;;;;;;;;;10560166;28;20043;-76
2023/12/23 09:00:32;;;;;;;0.10;0.10;;;;;;;;;;10560635;27;20067;-76
2023/12/23 09:05:35;;;;;;;0.35;0.17;;;;;;;;;;10557056;28;20500;-76
2023/12/23 09:10:40;;;;;;;0.15;0.15;;;;;;;;;;10560261;27;20473;-77
2023/12/23 09:15:42;;;;;;;0.30;0.30;;;;;;;;;;10567408;28;20073;-76
2023/12/23 09:20:45;;;;;;;0.20;0.20;;;;;;;;;;10547102;27;20100;-78
2023/12/23 09:25:51;;;;;;;0.10;0.10;;;;;;;;;;10547960;28;20044;-78
2023/12/23 09:36:59;;;;;;;0.77;0.40;;;;;;;;;;10556567;27;20024;-77
2023/12/23 09:42:04;;;;;;;0.63;0.20;;;;;;;;;;10563801;28;20089;-76
2023/12/23 09:59:27;;;;;;;0.20;0.20;;;;;;;;;;10498086;28;20035;-78
2023/12/23 10:04:30;;;;;;;0.15;0.10;;;;;;;;;;10510726;28;20118;-77
2023/12/23 10:09:33;;;;;;;0.10;0.10;;;;;;;;;;10510257;28;20036;-78
2023/12/23 10:14:41;;;;;;;0.20;0.20;;;;;;;;;;10506935;28;20035;-80
2023/12/23 10:19:43;;;;;;;0.38;0.20;;;;;;;;;;10507994;28;20040;-80
2023/12/23 10:24:46;;;;;;;0.68;0.40;;;;;;;;;;10511226;28;20039;-78
2023/12/23 10:29:51;;;;;;;0.57;0.20;;;;;;;;;;10509787;28;20131;-79
2023/12/23 10:34:57;;;;;;;0.22;0.22;;;;;;;;;;10505782;28;20037;-78
2023/12/23 10:40:03;;;;;;;1.65;0.20;;;;;;;;;;10509937;28;20055;-80
2023/12/23 10:45:07;;;;;;;0.57;0.20;;;;;;;;;;10512414;28;20139;-81
2023/12/23 10:50:10;;;;;;;0.30;0.20;;;;;;;;;;10516279;28;20043;-80
2023/12/23 10:55:14;;;;;;;0.20;0.20;;;;;;;;;;10513684;28;20417;-79
2023/12/23 11:00:20;;;;;;;0.10;0.10;;;;;;;;;;10508939;28;20067;-80
2023/12/23 11:05:23;;;;;;;;;;;;;;;;;;10517275;28;20121;-80
2023/12/23 11:10:28;;;;;;;0.20;0.20;;;;;;;;;;10516210;28;19981;-79
2023/12/23 11:15:32;;;;;;;0.30;0.20;;;;;;;;;;10508097;28;20519;-80
2023/12/23 11:20:43;;;;;;;0.20;0.20;;;;;;;;;;10512478;28;20066;-79
2023/12/23 11:25:46;;;;;;;1.13;0.22;;;;;;;;;;10510914;28;20195;-78
2023/12/23 11:30:51;;;;;;;1.20;0.20;;;;;;;;;;10518028;28;20048;-79
2023/12/23 11:35:54;;;;;;;0.10;0.10;;;;;;;;;;10517143;28;20040;-78
2023/12/23 11:41:00;;;;;;;1.73;0.20;;;;;;;;;;10516251;28;20056;-79
2023/12/23 11:46:04;;;;;;;0.10;0.10;;;;;;;;;;10513144;28;20502;-78
2023/12/23 11:51:07;;;;;;;0.10;0.10;;;;;;;;;;10512781;28;20109;-79
2023/12/23 11:56:10;;;;;;;0.00;0.00;;;;;;;;;;10513112;28;20039;-79
2023/12/23 12:01:14;;;;;;;0.68;0.10;;;;;;;;;;10514682;28;20050;-79
2023/12/23 12:06:17;;;;;;;0.20;0.17;;;;;;;;;;10515451;28;20055;-79
2023/12/23 12:11:20;;;;;;;1.55;0.20;;;;;;;;;;10508944;28;20470;-79
2023/12/23 12:16:24;;;;;;;0.20;0.20;;;;;;;;;;10511435;28;20040;-77
2023/12/23 12:21:27;;;;;;;0.68;0.40;;;;;;;;;;10520342;28;20060;-76
2023/12/23 12:26:29;;;;;;;0.55;0.30;;;;;;;;;;10508822;28;20133;-77
2023/12/23 12:31:33;;;;;;;0.20;0.20;;;;;;;;;;10514263;28;20136;-76
2023/12/23 12:36:36;;;;;;;0.10;0.10;;;;;;;;;;10517530;28;20035;-77
2023/12/23 12:41:39;;;;;;;0.30;0.10;;;;;;;;;;10518306;28;20063;-78
2023/12/23 12:46:44;;;;;;;2.22;0.20;;;;;;;;;;10513198;28;20141;-77
2023/12/23 12:51:46;;;;;;;0.20;0.20;;;;;;;;;;10517680;28;20039;-78
2023/12/23 12:56:49;;;;;;;0.20;0.10;;;;;;;;;;10510523;28;20031;-78
2023/12/23 13:01:53;;;;;;;0.38;0.20;;;;;;;;;;10512848;28;20066;-78
2023/12/23 13:06:56;;;;;;;0.20;0.10;;;;;;;;;;10514079;28;20502;-77
2023/12/23 13:11:59;;;;;;;0.20;0.20;;;;;;;;;;10520212;28;20044;-76
2023/12/23 13:17:06;;;;;;;0.20;0.20;;;;;;;;;;10513543;28;20051;-77
2023/12/23 13:22:09;;;;;;;0.10;0.10;;;;;;;;;;10514256;28;20394;-77
2023/12/23 13:27:11;;;;;;;0.60;0.30;;;;;;;;;;10511501;28;20033;-77
2023/12/23 13:32:16;;;;;;;0.63;0.17;;;;;;;;;;10516578;28;20091;-77
2023/12/23 13:37:18;;;;;;;0.68;0.10;;;;;;;;;;10510734;28;20458;-77
2023/12/23 13:42:22;;;;;;;0.08;0.08;;;;;;;;;;10514236;28;20056;-78
2023/12/23 13:47:26;;;;;;;0.20;0.10;;;;;;;;;;10515957;28;20036;-78
2023/12/23 13:52:29;;;;;;;0.25;0.20;;;;;;;;;;10510292;28;20048;-78
2023/12/23 13:57:32;;;;;;;0.10;0.10;;;;;;;;;;10515015;28;20040;-77
2023/12/23 14:02:36;;;;;;;0.10;0.10;;;;;;;;;;10515276;28;20043;-78
2023/12/23 14:07:38;;;;;;;0.45;0.00;;;;;;;;;;10519414;28;20036;-78
2023/12/23 14:12:42;;;;;;;0.20;0.20;;;;;;;;;;10512777;28;20482;-77
2023/12/23 14:17:46;;;;;;;0.40;0.20;;;;;;;;;;10502415;28;20082;-77
2023/12/23 14:22:49;;;;;;;0.38;0.20;;;;;;;;;;10508807;28;20048;-78
2023/12/23 14:27:52;;;;;;;0.10;0.10;;;;;;;;;;10510460;28;20035;-76
2023/12/23 14:32:56;;;;;;;0.63;0.30;;;;;;;;;;10506088;28;20067;-78
2023/12/23 14:37:59;;;;;;;;;;;;;;;;;;10509423;28;20070;-75
2023/12/23 14:43:02;;;;;;;0.30;0.30;;;;;;;;;;10509277;28;20179;-77
2023/12/23 14:48:07;;;;;;;0.55;0.30;;;;;;;;;;10511476;28;20032;-76
2023/12/23 14:53:10;;;;;;;0.30;0.20;;;;;;;;;;10508409;28;20051;-77
2023/12/23 14:58:12;;;;;;;0.10;0.10;;;;;;;;;;10511203;28;20524;-77
2023/12/23 15:03:17;;;;;;;0.13;0.13;;;;;;;;;;10518459;28;20071;-76
2023/12/23 15:08:20;;;;;;;0.50;0.20;;;;;;;;;;10512852;28;20066;-75
2023/12/23 15:13:23;;;;;;;0.40;0.30;;;;;;;;;;10507807;28;20051;-77
2023/12/23 15:18:28;;;;;;;0.20;0.20;;;;;;;;;;10508657;28;20042;-77
2023/12/23 15:23:31;;;;;;;0.20;0.20;;;;;;;;;;10509649;28;20135;-77
2023/12/23 15:28:34;;;;;;;0.40;0.30;;;;;;;;;;10508387;28;20040;-76
2023/12/23 15:33:38;;;;;;;0.17;0.10;;;;;;;;;;10506581;28;20036;-76
2023/12/23 15:38:40;;;;;;;;;;;;;;;;;;10515313;28;20047;-75
2023/12/23 15:43:43;;;;;;;0.50;0.22;;;;;;;;;;10511544;28;19928;-76
2023/12/23 15:48:47;;;;;;;0.43;0.25;;;;;;;;;;10511823;28;20058;-76
2023/12/23 15:53:50;;;;;;;0.40;0.30;;;;;;;;;;10507686;28;20100;-76
2023/12/23 15:58:53;;;;;;;0.75;0.20;;;;;;;;;;10504061;28;20131;-74
2023/12/23 16:03:57;;;;;;;0.63;0.30;;;;;;;;;;10513048;28;20044;-75
2023/12/23 16:09:00;;;;;;;0.75;0.30;;;;;;;;;;10517000;28;20052;-75
2023/12/23 16:14:04;;;;;;;0.15;0.15;;;;;;;;;;10511607;28;20075;-75
2023/12/23 16:19:08;;;;;;;0.85;0.40;;;;;;;;;;10529377;28;20044;-75
2023/12/23 16:24:12;;;;;;;1.80;0.30;;;;;;;;;;10546511;28;20056;-75
2023/12/23 16:29:15;;;;;;;0.20;0.20;;;;;;;;;;10542449;28;20036;-75
2023/12/23 16:34:19;;;;;;;0.30;0.17;;;;;;;;;;10523891;28;20040;-76
2023/12/23 16:39:22;;;;;;;0.22;0.20;;;;;;;;;;10516727;28;20127;-76
2023/12/23 16:44:24;;;;;;;0.30;0.30;;;;;;;;;;10511648;28;20050;-75
2023/12/23 16:49:29;;;;;;;1.50;0.30;;;;;;;;;;10514785;28;20051;-76
2023/12/23 16:54:45;;;;;;;0.30;0.20;;;;;;;;;;10511175;28;20119;-75
2023/12/23 16:59:48;;;;;;;1.25;0.50;;;;;;;;;;10516820;28;20036;-76
2023/12/23 17:04:52;;;;;;;0.90;0.30;;;;;;;;;;10513867;28;20063;-76
2023/12/23 17:09:56;;;;;;;0.25;0.25;;;;;;;;;;10522259;28;20047;-76
2023/12/23 17:14:59;;;;;;;0.73;0.43;;;;;;;;;;10511656;28;20032;-75
2023/12/23 17:20:04;;;;;;;0.20;0.20;;;;;;;;;;10518505;28;20520;-75
2023/12/23 17:25:07;;;;;;;0.17;0.17;;;;;;;;;;10512870;28;20302;-76
2023/12/23 17:30:10;;;;;;;0.20;0.20;;;;;;;;;;10515294;28;20458;-76
2023/12/23 17:35:14;;;;;;;0.10;0.10;;;;;;;;;;10517708;28;20374;-78
2023/12/23 17:40:17;;;;;;;0.70;0.10;;;;;;;;;;10527906;28;20144;-75
2023/12/23 17:45:20;;;;;;;1.95;0.40;;;;;;;;;;10515008;28;20475;-76
2023/12/23 17:50:24;;;;;;;0.85;0.40;;;;;;;;;;10518462;28;20039;-76
2023/12/23 17:55:27;;;;;;;0.32;0.28;;;;;;;;;;10508593;28;20626;-75
2023/12/23 18:00:30;;;;;;;0.13;0.10;;;;;;;;;;10519332;28;20048;-74
2023/12/23 18:05:34;;;;;;;1.27;0.47;;;;;;;;;;10512063;28;20048;-76
2023/12/23 18:10:37;;;;;;;0.30;0.20;;;;;;;;;;10517605;28;20421;-76
2023/12/23 18:15:40;;;;;;;0.28;0.25;;;;;;;;;;10515728;28;20044;-76
2023/12/23 18:20:44;;;;;;;0.30;0.25;;;;;;;;;;10515158;28;20282;-77
2023/12/23 18:25:47;;;;;;;0.70;0.38;;;;;;;;;;10514830;28;20067;-76
2023/12/23 18:30:50;;;;;;;0.35;0.20;;;;;;;;;;10518147;28;20056;-77
2023/12/23 18:35:54;;;;;;;0.45;0.30;;;;;;;;;;10512163;28;20040;-75
2023/12/23 18:40:56;;;;;;;;;;;;;;;;;;10509260;28;20119;-75
2023/12/23 18:45:59;;;;;;;0.00;0.00;;;;;;;;;;10507951;28;20022;-75
2023/12/23 18:51:03;;;;;;;0.10;0.10;;;;;;;;;;10512091;28;20079;-75
2023/12/23 18:56:06;;;;;;;0.50;0.50;;;;;;;;;;10501534;28;20405;-75
2023/12/23 19:01:09;;;;;;;0.30;0.30;;;;;;;;;;10506711;28;20050;-75
2023/12/23 19:06:13;;;;;;;0.40;0.30;;;;;;;;;;10504057;28;20067;-75
2023/12/23 19:11:16;;;;;;;0.63;0.60;;;;;;;;;;10503221;28;20655;-75
2023/12/23 19:16:18;;;;;;;0.30;0.20;;;;;;;;;;10513293;28;20040;-74
2023/12/23 19:21:24;;;;;;;0.93;0.40;;;;;;;;;;10505959;28;20066;-75
2023/12/23 19:26:27;;;;;;;0.20;0.20;;;;;;;;;;10504222;28;20430;-75
2023/12/23 19:31:30;;;;;;;0.77;0.40;;;;;;;;;;10508674;28;20045;-76
2023/12/23 19:36:36;;;;;;;0.20;0.20;;;;;;;;;;10511441;28;20053;-76
2023/12/23 19:41:39;;;;;;;0.38;0.20;;;;;;;;;;10506342;28;20040;-76
2023/12/23 19:46:42;;;;;;;0.10;0.10;;;;;;;;;;10508889;28;20044;-77
2023/12/23 19:51:46;;;;;;;0.15;0.13;;;;;;;;;;10517703;28;20074;-76
2023/12/23 19:56:49;;;;;;;0.77;0.50;;;;;;;;;;10508534;28;20378;-76
2023/12/23 20:01:52;;;;;;;0.30;0.30;;;;;;;;;;10515774;28;20043;-75
2023/12/23 20:06:56;;;;;;;1.10;0.52;;;;;;;;;;10518409;28;20457;-76
2023/12/23 20:11:59;;;;;;;0.45;0.35;;;;;;;;;;10518548;28;20036;-75
2023/12/23 20:17:01;;;;;;;0.20;0.20;;;;;;;;;;10519641;28;20056;-76
2023/12/23 20:22:05;;;;;;;0.30;0.30;;;;;;;;;;10512507;28;20151;-75
2023/12/23 20:27:08;;;;;;;0.30;0.30;;;;;;;;;;10510790;28;20056;-75
2023/12/23 20:32:11;;;;;;;1.35;0.50;;;;;;;;;;10514322;28;20063;-77
2023/12/23 20:37:15;;;;;;;1.83;0.30;;;;;;;;;;10514080;28;20106;-77
2023/12/23 20:42:18;;;;;;;0.52;0.35;;;;;;;;;;10517517;28;20067;-76
2023/12/23 20:47:21;;;;;;;0.47;0.33;;;;;;;;;;10516314;28;20040;-76
2023/12/23 20:52:25;;;;;;;0.63;0.40;;;;;;;;;;10511368;28;20511;-76
2023/12/23 20:57:29;;;;;;;0.30;0.20;;;;;;;;;;10511647;28;20040;-75
2023/12/23 21:02:32;;;;;;;0.20;0.20;;;;;;;;;;10516859;28;20075;-76
2023/12/23 21:07:37;;;;;;;0.20;0.15;;;;;;;;;;10516230;28;20094;-76
2023/12/23 21:12:40;;;;;;;0.22;0.22;;;;;;;;;;10507501;28;20047;-76
2023/12/23 21:17:42;;;;;;;0.45;0.40;;;;;;;;;;10507043;28;20041;-76
2023/12/23 21:22:47;;;;;;;0.25;0.25;;;;;;;;;;10506991;28;20036;-74
2023/12/23 21:27:50;;;;;;;0.32;0.20;;;;;;;;;;10514204;28;20043;-74
2023/12/23 21:32:52;;;;;;;0.25;0.25;;;;;;;;;;10512615;28;20070;-75
2023/12/23 21:37:57;;;;;;;0.13;0.13;;;;;;;;;;10509206;28;20040;-76
2023/12/23 21:43:00;;;;;;;1.23;0.20;;;;;;;;;;10504438;28;20035;-75
2023/12/23 21:48:03;;;;;;;0.77;0.30;;;;;;;;;;10514074;28;20044;-75
2023/12/23 21:53:07;;;;;;;0.10;0.10;;;;;;;;;;10511046;28;20089;-75
2023/12/23 21:58:11;;;;;;;0.38;0.22;;;;;;;;;;10510172;28;20133;-76
2023/12/23 22:03:14;;;;;;;1.33;0.20;;;;;;;;;;10515699;28;20045;-75
2023/12/23 22:08:18;;;;;;;0.13;0.13;;;;;;;;;;10509352;28;20028;-75
2023/12/23 22:13:22;;;;;;;0.47;0.10;;;;;;;;;;10508472;28;20147;-76
2023/12/23 22:18:25;;;;;;;0.60;0.30;;;;;;;;;;10511794;28;20119;-75
2023/12/23 22:23:29;;;;;;;0.30;0.30;;;;;;;;;;10512620;28;20513;-75
2023/12/23 22:28:32;;;;;;;;;;;;;;;;;;10512137;28;20031;-75
2023/12/23 22:33:36;;;;;;;0.20;0.20;;;;;;;;;;10514986;28;19963;-76
2023/12/23 22:38:40;;;;;;;0.28;0.28;;;;;;;;;;10510530;28;20039;-75
2023/12/23 22:43:43;;;;;;;;;;;;;;;;;;10509910;28;20052;-74
2023/12/23 22:48:46;;;;;;;0.57;0.30;;;;;;;;;;10506841;28;19920;-75
2023/12/23 22:53:51;;;;;;;0.43;0.33;;;;;;;;;;10511295;28;20039;-75
2023/12/23 22:58:54;;;;;;;0.40;0.20;;;;;;;;;;10509274;28;20064;-74
2023/12/23 23:03:56;;;;;;;0.20;0.20;;;;;;;;;;10507459;28;20127;-74
2023/12/23 23:09:00;;;;;;;0.25;0.20;;;;;;;;;;10513842;28;20498;-76
2023/12/23 23:14:04;;;;;;;0.25;0.25;;;;;;;;;;10500727;28;20519;-76
2023/12/23 23:19:07;;;;;;;0.20;0.20;;;;;;;;;;10508788;28;20040;-77
2023/12/23 23:24:11;;;;;;;0.20;0.20;;;;;;;;;;10523416;28;20137;-75
2023/12/23 23:29:14;;;;;;;0.13;0.10;;;;;;;;;;10518990;28;20078;-77
2023/12/23 23:34:16;;;;;;;0.30;0.20;;;;;;;;;;10520128;28;20049;-76
2023/12/23 23:39:21;;;;;;;0.30;0.20;;;;;;;;;;10529445;28;20059;-75
2023/12/23 23:44:23;;;;;;;0.45;0.40;;;;;;;;;;10552307;28;20050;-75
2023/12/23 23:49:27;;;;;;;0.30;0.30;;;;;;;;;;10549046;28;20444;-76
2023/12/23 23:54:31;;;;;;;0.47;0.30;;;;;;;;;;10525961;28;20051;-74
2023/12/23 23:59:33;;;;;;;0.98;0.40;;;;;;;;;;10525166;28;20167;-74
